Time;durP1;ratioP1;P1;durP2;ratioP2;P2;SDS_P1;SDS_P2;PMS_P1;PMS_P2;Temp;Humidity;BMP_temperature;BMP_pressure;BME280_temperature;BME280_humidity;BME280_pressure;Samples;Min_cycle;Max_cycle;Signal;HPM_P1;HPM_P2
2023/11/09 05:07:55;;;;;;;3.70;1.30;;;;;;;;;;5041027;28;20487;-75
2023/11/09 05:10:23;;;;;;;3.70;1.20;;;;;;;;;;5042908;28;20480;-75
2023/11/09 05:12:51;;;;;;;2.50;1.20;;;;;;;;;;5039499;28;20555;-77
2023/11/09 05:15:19;;;;;;;3.73;1.10;;;;;;;;;;5039006;28;20778;-76
2023/11/09 05:17:50;;;;;;;6.23;1.57;;;;;;;;;;5042870;28;20486;-76
2023/11/09 05:20:19;;;;;;;2.37;1.27;;;;;;;;;;5043603;28;20546;-77
2023/11/09 05:22:47;;;;;;;3.87;1.50;;;;;;;;;;5041161;28;20729;-75
2023/11/09 05:25:16;;;;;;;3.43;1.40;;;;;;;;;;5040724;28;20485;-75
2023/11/09 05:27:51;;;;;;;2.70;1.33;;;;;;;;;;5041218;28;20488;-75
2023/11/09 05:30:20;;;;;;;5.00;1.60;;;;;;;;;;5038684;28;20761;-77
2023/11/09 05:32:48;;;;;;;4.07;1.20;;;;;;;;;;5048175;28;20503;-76
2023/11/09 05:35:17;;;;;;;3.57;1.67;;;;;;;;;;5082294;28;20518;-76
2023/11/09 05:37:47;;;;;;;3.43;1.73;;;;;;;;;;5079244;28;20480;-75
2023/11/09 05:40:20;;;;;;;5.87;1.40;;;;;;;;;;5079579;28;20468;-77
2023/11/09 05:42:48;;;;;;;2.90;1.87;;;;;;;;;;5075748;28;20460;-76
2023/11/09 05:45:16;;;;;;;4.63;2.07;;;;;;;;;;5080454;28;20869;-74
2023/11/09 05:47:44;;;;;;;3.00;1.67;;;;;;;;;;5079387;28;20531;-77
2023/11/09 05:50:12;;;;;;;5.60;2.07;;;;;;;;;;5081886;28;20459;-76
2023/11/09 05:52:41;;;;;;;3.17;1.77;;;;;;;;;;5078689;28;20490;-76
2023/11/09 05:55:19;;;;;;;5.90;2.07;;;;;;;;;;5079300;28;20472;-77
2023/11/09 05:57:47;;;;;;;6.50;2.53;;;;;;;;;;5068557;28;20964;-76
2023/11/09 06:00:18;;;;;;;4.10;2.00;;;;;;;;;;5057099;28;20461;-75
2023/11/09 06:03:00;;;;;;;3.10;1.60;;;;;;;;;;5058392;28;20457;-74
2023/11/09 06:05:30;;;;;;;3.20;1.73;;;;;;;;;;5045835;28;20512;-76
2023/11/09 06:07:58;;;;;;;4.73;2.00;;;;;;;;;;5055834;28;20454;-76
2023/11/09 06:10:29;;;;;;;7.67;2.83;;;;;;;;;;5056173;28;20461;-76
2023/11/09 06:12:59;;;;;;;5.23;2.00;;;;;;;;;;5051553;28;20494;-76
2023/11/09 06:15:30;;;;;;;6.70;2.30;;;;;;;;;;5051734;28;20481;-76
2023/11/09 06:18:01;;;;;;;3.40;1.90;;;;;;;;;;5053455;28;20540;-74
2023/11/09 06:20:32;;;;;;;5.00;1.80;;;;;;;;;;5041094;28;20929;-75
2023/11/09 06:23:06;;;;;;;6.53;2.33;;;;;;;;;;5048215;28;20480;-75
2023/11/09 06:25:41;;;;;;;4.37;2.13;;;;;;;;;;5051156;28;20487;-77
2023/11/09 06:28:12;;;;;;;7.00;2.00;;;;;;;;;;5054348;28;20469;-76
2023/11/09 06:30:53;;;;;;;4.60;1.77;;;;;;;;;;5049974;28;20712;-77
2023/11/09 06:33:38;;;;;;;3.70;1.90;;;;;;;;;;5050860;28;21091;-77
2023/11/09 06:36:09;;;;;;;6.10;2.67;;;;;;;;;;5050113;28;20492;-76
2023/11/09 06:38:40;;;;;;;7.37;2.07;;;;;;;;;;5040537;28;20449;-75
2023/11/09 06:41:10;;;;;;;3.97;2.37;;;;;;;;;;5049793;28;20466;-77
2023/11/09 06:43:40;;;;;;;3.60;2.10;;;;;;;;;;5047050;28;20515;-76
2023/11/09 06:46:13;;;;;;;4.60;2.13;;;;;;;;;;5048598;28;20462;-75
2023/11/09 06:51:46;;;;;;;4.33;1.90;;;;;;;;;;5052395;28;20551;-75
2023/11/09 06:54:17;;;;;;;4.43;1.90;;;;;;;;;;5050309;28;20429;-76
2023/11/09 06:56:49;;;;;;;8.33;2.30;;;;;;;;;;5050727;28;20442;-76
2023/11/09 06:59:21;;;;;;;4.17;2.20;;;;;;;;;;5049420;28;20457;-76
2023/11/09 07:01:50;;;;;;;4.20;2.73;;;;;;;;;;5053026;28;20519;-76
2023/11/09 07:04:18;;;;;;;3.20;2.00;;;;;;;;;;5049806;28;20841;-77
2023/11/09 07:06:48;;;;;;;3.47;2.00;;;;;;;;;;5050063;28;20457;-77
2023/11/09 07:09:23;;;;;;;4.00;2.40;;;;;;;;;;5046543;28;20448;-77
2023/11/09 07:11:58;;;;;;;10.83;2.30;;;;;;;;;;5042209;28;20902;-77
2023/11/09 07:14:29;;;;;;;10.30;2.87;;;;;;;;;;4962492;28;1582835;-78
2023/11/09 07:16:57;;;;;;;4.17;2.00;;;;;;;;;;5039809;28;20202;-78
2023/11/09 07:19:33;;;;;;;7.03;3.90;;;;;;;;;;5031727;28;21086;-77
2023/11/09 07:22:05;;;;;;;6.43;2.30;;;;;;;;;;5049949;28;20832;-77
2023/11/09 07:24:40;;;;;;;6.13;3.13;;;;;;;;;;5046454;28;20745;-77
2023/11/09 07:27:15;;;;;;;4.17;2.07;;;;;;;;;;5047131;28;20464;-76
2023/11/09 07:29:43;;;;;;;5.07;2.33;;;;;;;;;;5028999;28;20466;-76
2023/11/09 07:32:28;;;;;;;6.63;2.20;;;;;;;;;;5030171;28;20472;-78
2023/11/09 07:35:02;;;;;;;4.17;1.50;;;;;;;;;;5031957;28;20490;-77
2023/11/09 07:37:42;;;;;;;3.80;2.10;;;;;;;;;;5031647;28;20458;-76
2023/11/09 07:40:18;;;;;;;5.03;2.10;;;;;;;;;;5032166;28;20473;-78
2023/11/09 07:43:04;;;;;;;4.20;1.80;;;;;;;;;;5033530;28;20476;-77
2023/11/09 07:45:55;;;;;;;6.60;1.93;;;;;;;;;;5034196;28;20454;-77
2023/11/09 07:51:38;;;;;;;4.27;2.03;;;;;;;;;;5056903;28;20425;-76
2023/11/09 07:54:21;;;;;;;5.30;2.27;;;;;;;;;;5050235;28;20441;-77
2023/11/09 07:57:02;;;;;;;3.70;1.80;;;;;;;;;;5055376;28;20839;-76
2023/11/09 07:59:32;;;;;;;3.17;1.83;;;;;;;;;;5057505;28;20888;-77
2023/11/09 08:02:00;;;;;;;3.57;1.93;;;;;;;;;;5054593;28;20472;-76
2023/11/09 08:04:31;;;;;;;6.57;1.97;;;;;;;;;;5054629;28;20762;-75
2023/11/09 08:06:59;;;;;;;4.87;2.40;;;;;;;;;;5055796;28;20519;-75
2023/11/09 08:09:28;;;;;;;3.27;1.60;;;;;;;;;;5053717;28;20560;-74
2023/11/09 08:12:01;;;;;;;8.00;3.10;;;;;;;;;;5053095;28;20461;-74
2023/11/09 08:37:53;;;;;;;4.00;1.70;;;;;;;;;;5043061;28;20221;-75
2023/11/09 08:43:33;;;;;;;4.67;2.77;;;;;;;;;;5000848;28;20414;-77
2023/11/09 08:49:13;;;;;;;5.57;3.10;;;;;;;;;;5036528;28;20456;-76
2023/11/09 08:57:50;;;;;;;5.40;2.37;;;;;;;;;;5029970;28;20485;-77
2023/11/09 09:00:28;;;;;;;10.53;2.70;;;;;;;;;;5055192;28;20449;-76
2023/11/09 09:03:01;;;;;;;12.20;2.33;;;;;;;;;;5053010;28;20487;-75
2023/11/09 09:06:01;;;;;;;5.30;3.33;;;;;;;;;;5055483;28;20748;-76
2023/11/09 18:34:11;;;;;;;5.67;4.07;;;;;;;;;;5078796;28;20522;-79
2023/11/09 18:45:53;;;;;;;13.10;4.00;;;;;;;;;;4288273;26;20473;-81
2023/11/09 18:48:30;;;;;;;11.40;6.40;;;;;;;;;;5049304;28;20442;-78
2023/11/09 18:51:05;;;;;;;11.40;7.83;;;;;;;;;;5047938;28;20539;-80
2023/11/09 18:53:35;;;;;;;12.70;6.50;;;;;;;;;;5064471;28;20437;-79
2023/11/09 18:58:51;;;;;;;9.90;4.23;;;;;;;;;;5017346;28;20452;-78
2023/11/09 19:01:18;;;;;;;8.40;3.67;;;;;;;;;;5055089;28;20491;-78
2023/11/09 19:03:47;;;;;;;9.23;5.47;;;;;;;;;;5048748;28;20461;-80
2023/11/09 19:06:15;;;;;;;8.63;4.60;;;;;;;;;;5060734;28;20497;-79
2023/11/09 19:08:46;;;;;;;10.03;6.27;;;;;;;;;;5054763;28;20465;-79
2023/11/09 19:11:21;;;;;;;22.77;10.70;;;;;;;;;;5056173;28;20468;-78
2023/11/09 19:13:51;;;;;;;7.03;4.53;;;;;;;;;;5067803;28;20473;-80
2023/11/09 19:16:21;;;;;;;9.33;6.17;;;;;;;;;;5063399;28;20527;-79
2023/11/09 19:19:00;;;;;;;5.23;4.17;;;;;;;;;;5071484;28;20553;-77
2023/11/09 19:21:29;;;;;;;7.67;5.30;;;;;;;;;;5053395;28;20488;-79
2023/11/09 19:24:24;;;;;;;17.67;11.07;;;;;;;;;;5063144;28;20469;-80
2023/11/09 19:27:28;;;;;;;12.93;8.50;;;;;;;;;;5065267;28;20466;-79
2023/11/09 19:30:14;;;;;;;7.90;5.90;;;;;;;;;;5052374;28;20470;-79
2023/11/09 19:33:38;;;;;;;8.77;4.03;;;;;;;;;;5065553;28;20469;-78
2023/11/09 19:39:22;;;;;;;9.10;4.60;;;;;;;;;;5070309;28;20474;-78
2023/11/09 19:41:51;;;;;;;6.40;3.80;;;;;;;;;;5066088;28;20453;-79
2023/11/09 19:44:18;;;;;;;11.30;6.63;;;;;;;;;;5069375;28;20556;-79
2023/11/09 19:46:49;;;;;;;7.00;4.37;;;;;;;;;;5060827;28;20473;-79
2023/11/09 19:49:22;;;;;;;9.50;4.73;;;;;;;;;;5068035;28;20451;-80
2023/11/09 19:52:27;;;;;;;4.70;2.83;;;;;;;;;;5066270;28;20879;-80
2023/11/09 19:54:58;;;;;;;5.80;3.10;;;;;;;;;;5061136;28;20456;-79
2023/11/09 19:57:32;;;;;;;7.37;4.03;;;;;;;;;;5068273;28;20516;-78
2023/11/09 20:00:00;;;;;;;7.07;3.00;;;;;;;;;;5061408;28;20468;-77
2023/11/09 20:02:38;;;;;;;10.50;4.03;;;;;;;;;;5064058;28;20526;-79
2023/11/09 20:05:34;;;;;;;9.27;3.97;;;;;;;;;;5062992;28;20468;-77
2023/11/09 20:08:05;;;;;;;6.17;2.73;;;;;;;;;;5061698;28;20457;-79
2023/11/09 20:10:43;;;;;;;8.60;3.13;;;;;;;;;;5065422;28;20475;-79
2023/11/09 20:13:23;;;;;;;5.20;3.37;;;;;;;;;;5059213;28;20465;-78
2023/11/09 20:15:57;;;;;;;4.60;2.60;;;;;;;;;;5045451;28;20446;-79
2023/11/09 20:18:33;;;;;;;5.87;2.87;;;;;;;;;;5044552;28;20451;-78
2023/11/09 20:21:12;;;;;;;6.03;3.13;;;;;;;;;;5042974;28;20497;-80
2023/11/09 20:23:39;;;;;;;6.00;2.27;;;;;;;;;;5043250;28;20458;-80
2023/11/09 20:26:12;;;;;;;6.90;2.93;;;;;;;;;;5042656;28;20439;-80
2023/11/09 20:28:42;;;;;;;6.20;2.13;;;;;;;;;;5042143;28;20442;-80
2023/11/09 20:31:11;;;;;;;4.73;3.07;;;;;;;;;;5043709;28;20524;-78
2023/11/09 20:33:46;;;;;;;3.53;1.83;;;;;;;;;;5041794;28;20528;-79
2023/11/09 20:36:14;;;;;;;6.40;2.73;;;;;;;;;;5041427;28;20456;-79
2023/11/09 20:38:46;;;;;;;3.90;2.30;;;;;;;;;;5044253;28;20446;-79
2023/11/09 20:41:16;;;;;;;6.40;2.73;;;;;;;;;;5043853;28;20500;-79
2023/11/09 20:43:43;;;;;;;6.10;2.57;;;;;;;;;;5039795;28;20489;-79
2023/11/09 20:46:14;;;;;;;5.00;2.17;;;;;;;;;;5038442;28;20453;-79
2023/11/09 20:48:41;;;;;;;4.63;2.17;;;;;;;;;;5038499;28;20447;-80
2023/11/09 20:51:10;;;;;;;11.77;3.13;;;;;;;;;;5040790;28;20520;-80
2023/11/09 20:53:37;;;;;;;6.50;2.70;;;;;;;;;;5040326;28;20862;-80
2023/11/09 20:56:05;;;;;;;7.33;2.70;;;;;;;;;;5042767;28;20462;-79
2023/11/09 20:58:40;;;;;;;4.80;2.40;;;;;;;;;;5040055;28;20447;-77
2023/11/09 21:01:09;;;;;;;8.00;2.40;;;;;;;;;;5042428;28;20461;-79
2023/11/09 21:03:39;;;;;;;4.60;2.30;;;;;;;;;;5059045;28;20453;-79
2023/11/09 21:06:09;;;;;;;9.80;2.93;;;;;;;;;;5060473;28;20468;-79
2023/11/09 21:08:37;;;;;;;9.47;2.43;;;;;;;;;;5058981;28;20950;-80
2023/11/09 21:11:04;;;;;;;5.53;2.10;;;;;;;;;;5062694;28;20743;-79
2023/11/09 21:13:33;;;;;;;4.10;2.40;;;;;;;;;;5061813;28;20469;-79
2023/11/09 21:16:03;;;;;;;6.50;2.20;;;;;;;;;;5062099;28;20461;-79
2023/11/09 21:18:31;;;;;;;4.73;2.20;;;;;;;;;;5060686;28;20477;-79
2023/11/09 21:20:59;;;;;;;6.30;2.50;;;;;;;;;;5059151;28;21012;-80
2023/11/09 21:23:27;;;;;;;7.70;2.40;;;;;;;;;;5056450;28;20480;-80
2023/11/09 21:25:54;;;;;;;5.30;2.63;;;;;;;;;;5058446;28;20441;-79
2023/11/09 21:28:22;;;;;;;5.83;2.30;;;;;;;;;;5058622;28;20455;-80
2023/11/09 21:30:55;;;;;;;6.70;2.30;;;;;;;;;;5059613;28;20873;-80
2023/11/09 21:33:24;;;;;;;5.67;3.03;;;;;;;;;;5061519;28;20480;-78
2023/11/09 21:35:51;;;;;;;5.80;2.20;;;;;;;;;;5062807;28;20449;-79
2023/11/09 21:38:20;;;;;;;9.17;2.90;;;;;;;;;;5062593;28;20524;-80
2023/11/09 21:40:47;;;;;;;6.17;2.57;;;;;;;;;;5062383;28;20449;-81
2023/11/09 21:43:15;;;;;;;4.97;2.50;;;;;;;;;;5061279;28;20440;-79
2023/11/09 21:45:42;;;;;;;5.97;2.47;;;;;;;;;;5063574;28;20445;-79
2023/11/09 21:48:10;;;;;;;4.03;1.93;;;;;;;;;;5065147;28;20491;-80
2023/11/09 21:50:40;;;;;;;8.53;3.20;;;;;;;;;;5065960;28;20450;-80
2023/11/09 21:53:12;;;;;;;5.43;2.10;;;;;;;;;;5063693;28;20496;-78
2023/11/09 21:55:47;;;;;;;11.53;2.60;;;;;;;;;;5067506;28;20755;-79
2023/11/09 21:58:15;;;;;;;8.00;2.60;;;;;;;;;;5065185;28;20488;-79
2023/11/09 22:00:43;;;;;;;4.60;2.27;;;;;;;;;;5066411;28;20544;-79
2023/11/09 22:03:11;;;;;;;9.83;1.93;;;;;;;;;;5065566;28;20891;-79
2023/11/09 22:05:40;;;;;;;7.30;2.43;;;;;;;;;;5067124;28;20740;-79
2023/11/09 22:08:08;;;;;;;6.47;3.53;;;;;;;;;;5067605;28;20485;-79
2023/11/09 22:10:35;;;;;;;6.80;2.40;;;;;;;;;;5068210;28;20908;-78
2023/11/09 22:13:06;;;;;;;4.60;2.50;;;;;;;;;;5066540;28;20527;-79
2023/11/09 22:15:41;;;;;;;6.97;2.10;;;;;;;;;;5068465;28;20454;-80
2023/11/09 22:18:09;;;;;;;5.20;2.43;;;;;;;;;;5070406;28;20476;-78
2023/11/09 22:20:37;;;;;;;5.30;2.03;;;;;;;;;;5070020;28;20452;-78
2023/11/09 22:23:06;;;;;;;4.60;1.90;;;;;;;;;;5073048;28;20476;-79
2023/11/09 22:25:33;;;;;;;5.17;1.60;;;;;;;;;;5074028;28;20453;-81
2023/11/09 22:28:01;;;;;;;3.60;1.13;;;;;;;;;;5073685;28;20460;-80
2023/11/09 22:30:29;;;;;;;4.70;1.97;;;;;;;;;;5073969;28;20488;-80
2023/11/09 22:32:56;;;;;;;3.50;2.37;;;;;;;;;;5066909;28;20491;-80
2023/11/09 22:35:24;;;;;;;6.00;1.87;;;;;;;;;;5067979;28;20477;-79
2023/11/09 22:37:51;;;;;;;6.80;2.43;;;;;;;;;;5069470;28;20584;-79
2023/11/09 22:40:20;;;;;;;5.33;2.00;;;;;;;;;;5069156;28;20481;-80
2023/11/09 22:42:48;;;;;;;6.07;1.73;;;;;;;;;;5068117;28;20449;-80
2023/11/09 22:45:16;;;;;;;5.67;1.90;;;;;;;;;;5067230;28;20587;-80
2023/11/09 22:47:43;;;;;;;5.40;1.63;;;;;;;;;;5065739;28;20513;-78
2023/11/09 22:50:12;;;;;;;5.20;2.17;;;;;;;;;;5068469;28;20456;-78
2023/11/09 22:52:42;;;;;;;4.13;1.70;;;;;;;;;;5064663;28;20453;-81
2023/11/09 22:55:13;;;;;;;4.67;2.00;;;;;;;;;;5069555;28;20621;-80
2023/11/09 22:57:43;;;;;;;5.13;1.70;;;;;;;;;;5067665;28;20746;-78
2023/11/09 23:00:23;;;;;;;5.50;1.83;;;;;;;;;;5071364;28;20476;-80
2023/11/09 23:02:53;;;;;;;5.90;2.40;;;;;;;;;;5067098;28;20509;-80
2023/11/09 23:05:21;;;;;;;4.00;1.60;;;;;;;;;;5065616;28;20511;-78
2023/11/09 23:07:49;;;;;;;5.83;1.70;;;;;;;;;;5067793;28;20454;-80
2023/11/09 23:10:16;;;;;;;5.43;1.50;;;;;;;;;;5066509;28;20457;-79
2023/11/09 23:12:47;;;;;;;8.20;1.60;;;;;;;;;;5064468;28;20516;-80
2023/11/09 23:15:14;;;;;;;3.87;1.73;;;;;;;;;;5066087;28;20449;-80
2023/11/09 23:17:42;;;;;;;4.43;1.47;;;;;;;;;;5067343;28;20497;-80
2023/11/09 23:20:12;;;;;;;6.60;2.23;;;;;;;;;;5065814;28;20621;-80
2023/11/09 23:22:41;;;;;;;7.23;1.40;;;;;;;;;;5065761;28;20465;-80
2023/11/09 23:25:13;;;;;;;5.10;1.53;;;;;;;;;;5065864;28;20468;-78
2023/11/09 23:27:41;;;;;;;3.43;1.83;;;;;;;;;;5068404;28;20464;-79
2023/11/09 23:30:12;;;;;;;2.47;1.23;;;;;;;;;;5063764;28;20531;-79
2023/11/09 23:32:40;;;;;;;5.20;1.43;;;;;;;;;;5064339;28;20452;-79
2023/11/09 23:35:14;;;;;;;4.20;1.53;;;;;;;;;;5066760;28;20917;-80
2023/11/09 23:37:43;;;;;;;3.53;1.80;;;;;;;;;;5067997;28;20515;-79
2023/11/09 23:40:13;;;;;;;4.00;1.80;;;;;;;;;;5069479;28;20488;-79
2023/11/09 23:42:42;;;;;;;3.10;1.47;;;;;;;;;;5072306;28;20465;-79
2023/11/09 23:45:11;;;;;;;5.17;1.57;;;;;;;;;;5073083;28;20437;-80
2023/11/09 23:47:39;;;;;;;4.13;1.67;;;;;;;;;;5070248;28;20531;-79
2023/11/09 23:50:11;;;;;;;4.50;1.60;;;;;;;;;;5069323;28;20488;-79
2023/11/09 23:52:39;;;;;;;4.63;1.67;;;;;;;;;;5064959;28;20746;-78
2023/11/09 23:55:07;;;;;;;3.33;2.00;;;;;;;;;;5064790;28;20457;-80
2023/11/09 23:57:35;;;;;;;3.33;1.27;;;;;;;;;;5063441;28;20457;-79
